createdAt,value
2022-10-17T00:00:31.032Z,16.04
2022-10-17T00:02:57.893Z,16.07
2022-10-17T00:05:25.093Z,16.11
2022-10-17T00:07:52.698Z,12.68
2022-10-17T00:10:20.079Z,15.14
2022-10-17T00:12:46.820Z,15.75
2022-10-17T00:15:19.406Z,15.96
2022-10-17T00:17:45.857Z,15.99
2022-10-17T00:20:13.104Z,16.01
2022-10-17T00:22:39.924Z,15.03
2022-10-17T00:25:07.031Z,12.78
2022-10-17T00:27:38.283Z,12.37
2022-10-17T00:30:06.587Z,15.13
2022-10-17T00:32:33.196Z,14.58
2022-10-17T00:34:59.680Z,14.52
2022-10-17T00:37:26.139Z,15.53
2022-10-17T00:39:53.896Z,15.73
2022-10-17T00:42:20.438Z,15.79
2022-10-17T00:44:47.539Z,14.88
2022-10-17T00:47:19.508Z,14.50
2022-10-17T00:49:46.243Z,10.85
2022-10-17T00:52:20.830Z,14.78
2022-10-17T00:54:51.621Z,15.40
2022-10-17T00:57:18.206Z,15.54
2022-10-17T00:59:49.741Z,11.67
2022-10-17T01:02:19.620Z,14.97
2022-10-17T01:04:48.991Z,14.23
2022-10-17T01:07:15.453Z,15.20
2022-10-17T01:09:44.380Z,11.11
2022-10-17T01:12:23.345Z,11.74
2022-10-17T01:15:26.996Z,12.56
2022-10-17T01:18:14.658Z,14.16
2022-10-17T01:21:15.134Z,11.00
2022-10-17T01:24:21.738Z,14.26
2022-10-17T01:27:08.611Z,12.17
2022-10-17T01:30:10.387Z,14.82
2022-10-17T01:32:54.146Z,15.02
2022-10-17T01:35:50.792Z,13.06
2022-10-17T01:38:53.132Z,14.90
2022-10-17T01:41:32.191Z,15.07
2022-10-17T01:44:18.119Z,14.19
2022-10-17T01:46:50.237Z,14.84
2022-10-17T01:49:22.637Z,15.01
2022-10-17T01:51:54.380Z,13.94
2022-10-17T01:54:41.551Z,14.80
2022-10-17T01:57:14.024Z,15.07
2022-10-17T01:59:44.304Z,12.01
2022-10-17T02:02:13.737Z,13.53
2022-10-17T02:04:41.268Z,12.41
2022-10-17T02:07:13.305Z,14.39
2022-10-17T02:09:40.275Z,14.93
2022-10-17T02:12:32.819Z,14.56
2022-10-17T02:15:08.245Z,15.00
2022-10-17T02:17:48.422Z,14.93
2022-10-17T02:20:43.956Z,13.70
2022-10-17T02:23:25.409Z,14.53
2022-10-17T02:26:04.918Z,14.95
2022-10-17T02:29:00.670Z,15.05
2022-10-17T02:31:35.119Z,14.29
2022-10-17T02:34:07.904Z,10.56
2022-10-17T02:36:43.783Z,14.10
2022-10-17T02:39:12.076Z,14.73
2022-10-17T02:41:40.342Z,14.85
2022-10-17T02:44:08.421Z,14.91
2022-10-17T02:46:37.337Z,14.90
2022-10-17T02:49:22.506Z,15.00
2022-10-17T02:52:14.944Z,15.03
2022-10-17T02:54:57.291Z,12.29
2022-10-17T02:57:44.412Z,13.35
2022-10-17T03:00:13.598Z,11.22
2022-10-17T03:02:43.191Z,13.57
2022-10-17T03:05:10.735Z,12.46
2022-10-17T03:07:37.163Z,14.27
2022-10-17T03:10:04.175Z,14.66
2022-10-17T03:12:30.959Z,13.80
2022-10-17T03:14:57.671Z,14.62
2022-10-17T03:17:24.083Z,11.82
2022-10-17T03:19:50.529Z,14.29
2022-10-17T03:22:16.928Z,14.59
2022-10-17T03:24:43.320Z,14.66
2022-10-17T03:27:09.767Z,14.69
2022-10-17T03:29:36.180Z,10.83
2022-10-17T03:32:02.605Z,13.75
2022-10-17T03:34:29.172Z,11.49
2022-10-17T03:36:55.553Z,13.15
2022-10-17T03:39:22.021Z,14.17
2022-10-17T03:41:48.472Z,14.21
2022-10-17T03:44:15.003Z,14.41
2022-10-17T03:46:42.045Z,14.50
2022-10-17T03:49:11.607Z,14.09
2022-10-17T03:51:38.098Z,14.31
2022-10-17T03:54:04.731Z,14.45
2022-10-17T03:56:31.132Z,14.52
2022-10-17T03:58:57.614Z,13.81
2022-10-17T04:01:24.348Z,14.37
2022-10-17T04:03:54.022Z,14.46
2022-10-17T04:06:21.101Z,14.49
2022-10-17T04:08:48.266Z,14.49
2022-10-17T04:11:19.957Z,14.52
2022-10-17T04:13:46.437Z,14.44
2022-10-17T04:16:17.173Z,14.50
2022-10-17T04:18:44.486Z,13.15
2022-10-17T04:21:12.233Z,14.23
2022-10-17T04:23:39.042Z,14.40
2022-10-17T04:26:06.688Z,14.49
2022-10-17T04:28:33.759Z,14.44
2022-10-17T04:31:03.056Z,14.33
2022-10-17T04:33:31.150Z,14.41
2022-10-17T04:36:02.136Z,13.42
2022-10-17T04:38:29.420Z,13.78
2022-10-17T04:41:04.853Z,13.76
2022-10-17T04:43:32.643Z,14.07
2022-10-17T04:46:00.324Z,14.17
2022-10-17T04:48:28.137Z,12.48
2022-10-17T04:51:08.781Z,14.01
2022-10-17T04:53:36.869Z,11.98
2022-10-17T04:56:09.811Z,13.85
2022-10-17T04:58:36.835Z,14.08
2022-10-17T05:01:12.685Z,14.16
2022-10-17T05:03:39.893Z,12.10
2022-10-17T05:06:14.766Z,10.94
2022-10-17T05:08:41.926Z,12.57
2022-10-17T05:11:23.610Z,13.68
2022-10-17T05:13:58.359Z,13.26
2022-10-17T05:16:25.784Z,13.15
2022-10-17T05:18:54.894Z,13.84
2022-10-17T05:21:23.716Z,12.63
2022-10-17T05:23:50.856Z,13.68
2022-10-17T05:26:17.853Z,11.35
2022-10-17T05:28:44.404Z,13.57
2022-10-17T05:31:11.573Z,13.74
2022-10-17T05:33:39.115Z,13.84
2022-10-17T05:36:06.512Z,13.88
2022-10-17T05:38:33.588Z,13.87
2022-10-17T05:41:01.815Z,13.93
2022-10-17T05:43:28.659Z,13.61
2022-10-17T05:45:55.756Z,13.81
2022-10-17T05:48:23.896Z,13.83
2022-10-17T05:50:50.274Z,13.85
2022-10-17T05:53:17.085Z,12.53
2022-10-17T05:55:43.475Z,11.73
2022-10-17T05:58:17.601Z,12.99
2022-10-17T06:00:48.773Z,10.84
2022-10-17T06:03:15.253Z,13.01
2022-10-17T06:05:41.717Z,13.58
2022-10-17T06:08:08.154Z,13.69
2022-10-17T06:10:34.637Z,13.71
2022-10-17T06:13:01.093Z,13.74
2022-10-17T06:15:27.527Z,13.68
2022-10-17T06:17:53.974Z,13.75
2022-10-17T06:20:20.343Z,12.94
2022-10-17T06:22:46.770Z,13.53
2022-10-17T06:25:13.340Z,13.64
2022-10-17T06:27:39.855Z,13.66
2022-10-17T06:30:06.836Z,13.61
2022-10-17T06:32:33.351Z,13.74
2022-10-17T06:34:59.766Z,13.66
2022-10-17T06:37:26.474Z,13.67
2022-10-17T06:39:53.628Z,13.66
2022-10-17T06:42:20.071Z,13.71
2022-10-17T06:44:46.439Z,13.21
2022-10-17T06:47:15.412Z,13.59
2022-10-17T06:49:44.389Z,13.60
2022-10-17T06:52:10.854Z,13.63
2022-10-17T06:54:37.260Z,13.64
2022-10-17T06:57:03.728Z,13.56
2022-10-17T06:59:30.087Z,13.58
2022-10-17T07:01:56.535Z,13.59
2022-10-17T07:04:22.918Z,13.59
2022-10-17T07:06:49.349Z,13.68
2022-10-17T07:09:16.985Z,13.66
2022-10-17T07:11:43.579Z,13.63
2022-10-17T07:14:10.080Z,13.72
2022-10-17T07:16:37.052Z,13.66
2022-10-17T07:19:03.715Z,13.78
2022-10-17T07:21:32.095Z,13.91
2022-10-17T07:24:00.391Z,13.84
2022-10-17T07:26:26.819Z,14.09
2022-10-17T07:28:55.542Z,16.17
2022-10-17T07:31:22.902Z,15.22
2022-10-17T07:33:49.869Z,17.19
2022-10-17T07:36:17.589Z,15.46
2022-10-17T07:38:44.141Z,15.89
2022-10-17T07:41:11.983Z,15.50
2022-10-17T07:43:38.822Z,15.75
2022-10-17T07:46:06.339Z,14.91
2022-10-17T07:48:32.847Z,15.92
2022-10-17T07:51:02.568Z,14.54
2022-10-17T07:53:29.072Z,14.41
2022-10-17T07:55:55.502Z,17.01
2022-10-17T07:58:21.937Z,18.93
2022-10-17T08:00:49.045Z,19.39
2022-10-17T08:03:15.624Z,18.73
2022-10-17T08:05:42.190Z,18.76
2022-10-17T08:08:08.760Z,18.40
2022-10-17T08:10:35.183Z,17.14
2022-10-17T08:13:02.506Z,19.54
2022-10-17T08:15:31.742Z,20.04
2022-10-17T08:17:59.433Z,20.47
2022-10-17T08:20:26.345Z,20.82
2022-10-17T08:22:56.430Z,20.03
2022-10-17T08:25:23.296Z,19.22
2022-10-17T08:27:50.019Z,19.58
2022-10-17T08:30:17.096Z,20.50
2022-10-17T08:32:44.005Z,21.41
2022-10-17T08:35:10.888Z,22.90
2022-10-17T08:37:37.431Z,19.76
2022-10-17T08:40:04.496Z,19.39
2022-10-17T08:42:55.379Z,17.58
2022-10-17T08:45:24.756Z,21.84
2022-10-17T08:48:13.610Z,21.87
2022-10-17T08:50:53.920Z,18.03
2022-10-17T08:53:35.792Z,23.69
2022-10-17T08:56:19.536Z,25.83
2022-10-17T08:58:51.763Z,26.26
2022-10-17T09:01:24.131Z,26.72
2022-10-17T09:04:09.871Z,27.50
2022-10-17T09:06:42.959Z,27.35
2022-10-17T09:09:46.826Z,27.23
2022-10-17T09:12:28.323Z,27.47
2022-10-17T09:15:08.373Z,27.52
2022-10-17T09:17:58.087Z,27.30
2022-10-17T09:20:31.903Z,27.34
2022-10-17T09:23:06.884Z,26.84
2022-10-17T09:25:42.469Z,23.60
2022-10-17T09:28:35.273Z,22.02
2022-10-17T09:31:11.770Z,19.18
2022-10-17T09:33:54.446Z,19.36
2022-10-17T09:36:25.945Z,20.28
2022-10-17T09:38:55.513Z,20.78
2022-10-17T09:41:49.304Z,21.55
2022-10-17T09:44:44.073Z,20.44
2022-10-17T09:47:13.518Z,19.95
2022-10-17T09:49:45.518Z,23.63
2022-10-17T09:52:17.261Z,23.17
2022-10-17T09:54:50.396Z,20.97
2022-10-17T09:57:18.904Z,23.09
2022-10-17T10:00:07.426Z,27.12
2022-10-17T10:02:40.649Z,27.04
2022-10-17T10:05:17.492Z,27.60
2022-10-17T10:08:01.600Z,23.73
2022-10-17T10:10:29.557Z,22.95
2022-10-17T10:13:14.167Z,20.99
2022-10-17T10:15:43.246Z,21.09
2022-10-17T10:18:25.057Z,21.62
2022-10-17T10:21:08.976Z,21.81
2022-10-17T10:23:40.087Z,21.41
2022-10-17T10:26:33.212Z,23.21
2022-10-17T10:29:20.961Z,20.71
2022-10-17T10:31:48.077Z,23.66
2022-10-17T10:34:20.395Z,21.83
2022-10-17T10:36:53.569Z,22.25
2022-10-17T10:39:31.991Z,24.50
2022-10-17T10:42:00.074Z,23.96
2022-10-17T10:44:30.652Z,24.88
2022-10-17T10:47:17.378Z,24.95
2022-10-17T10:49:44.080Z,22.13
2022-10-17T10:52:19.642Z,21.94
2022-10-17T10:54:55.457Z,22.26
2022-10-17T10:57:25.487Z,24.68
2022-10-17T11:00:00.020Z,21.20
2022-10-17T11:02:42.776Z,18.77
2022-10-17T11:05:24.400Z,22.18
2022-10-17T11:08:03.734Z,22.00
2022-10-17T11:10:30.094Z,22.23
2022-10-17T11:13:04.600Z,20.26
2022-10-17T11:15:57.658Z,22.44
2022-10-17T11:18:42.181Z,23.87
2022-10-17T11:21:36.210Z,20.97
2022-10-17T11:24:25.290Z,22.29
2022-10-17T11:27:04.094Z,22.44
2022-10-17T11:29:36.726Z,22.33
2022-10-17T11:32:15.508Z,22.47
2022-10-17T11:34:49.014Z,22.65
2022-10-17T11:37:23.161Z,22.44
2022-10-17T11:40:02.082Z,22.71
2022-10-17T11:42:38.661Z,21.54
2022-10-17T11:45:14.739Z,20.76
2022-10-17T11:47:47.862Z,21.49
2022-10-17T11:53:16.072Z,21.34
2022-10-17T11:55:44.465Z,21.36
2022-10-17T12:01:22.776Z,20.90
2022-10-17T12:04:13.511Z,21.58
2022-10-17T12:06:54.932Z,21.74
2022-10-17T12:09:40.798Z,20.34
2022-10-17T12:12:07.682Z,21.13
2022-10-17T12:14:42.615Z,21.05
2022-10-17T12:17:28.067Z,21.52
2022-10-17T12:20:17.286Z,21.34
2022-10-17T12:22:48.379Z,21.38
2022-10-17T12:25:21.416Z,21.69
2022-10-17T12:27:50.123Z,21.94
2022-10-17T12:30:23.260Z,21.38
2022-10-17T12:33:09.150Z,21.57
2022-10-17T12:35:37.796Z,21.46
2022-10-17T12:38:22.249Z,21.03
2022-10-17T12:40:51.489Z,20.80
2022-10-17T12:43:17.815Z,21.31
2022-10-17T12:45:55.057Z,21.55
2022-10-17T12:48:33.965Z,21.82
2022-10-17T12:53:57.279Z,21.64
2022-10-17T12:56:50.096Z,21.42
2022-10-17T12:59:27.743Z,21.19
2022-10-17T13:01:59.334Z,21.43
2022-10-17T13:04:27.365Z,21.41
2022-10-17T13:06:56.624Z,21.44
2022-10-17T13:09:29.501Z,21.50
2022-10-17T13:11:59.672Z,21.58
2022-10-17T13:14:27.403Z,21.57
2022-10-17T13:16:55.741Z,21.61
2022-10-17T13:19:29.241Z,21.47
2022-10-17T13:22:06.028Z,21.25
2022-10-17T13:24:40.686Z,21.23
2022-10-17T13:27:22.883Z,21.05
2022-10-17T13:29:49.444Z,19.77
2022-10-17T13:32:16.190Z,19.16
2022-10-17T13:34:42.945Z,20.38
2022-10-17T13:37:14.438Z,20.33
2022-10-17T13:39:55.324Z,19.51
2022-10-17T13:42:30.045Z,19.44
2022-10-17T13:44:58.644Z,19.66
2022-10-17T13:47:32.287Z,18.90
2022-10-17T13:49:59.455Z,18.73
2022-10-17T13:52:28.869Z,18.84
2022-10-17T13:55:08.519Z,18.72
2022-10-17T13:57:35.045Z,20.39
2022-10-17T14:00:11.753Z,19.05
2022-10-17T14:02:41.019Z,18.73
2022-10-17T14:05:17.743Z,18.60
2022-10-17T14:10:42.408Z,18.62
2022-10-17T14:13:20.617Z,18.48
2022-10-17T14:15:47.260Z,18.48
2022-10-17T14:18:19.656Z,18.37
2022-10-17T14:21:31.774Z,18.38
2022-10-17T14:23:41.457Z,18.34
2022-10-17T14:26:15.699Z,18.23
2022-10-17T14:28:45.367Z,18.22
2022-10-17T14:31:17.910Z,18.22
2022-10-17T14:33:50.518Z,18.15
2022-10-17T14:36:18.235Z,18.11
2022-10-17T14:38:47.658Z,18.07
2022-10-17T14:41:42.289Z,18.02
2022-10-17T14:44:22.361Z,18.11
2022-10-17T14:46:53.429Z,18.06
2022-10-17T14:49:26.128Z,18.03
2022-10-17T14:52:17.723Z,18.01
2022-10-17T14:54:48.466Z,18.02
2022-10-17T14:57:18.721Z,18.05
2022-10-17T14:59:54.194Z,18.01
2022-10-17T15:02:22.064Z,18.03
2022-10-17T15:04:48.491Z,18.05
2022-10-17T15:07:16.556Z,18.06
2022-10-17T15:09:44.236Z,18.02
2022-10-17T15:12:20.031Z,18.06
2022-10-17T15:14:48.416Z,18.10
2022-10-17T15:17:20.518Z,18.08
2022-10-17T15:19:47.851Z,18.08
2022-10-17T15:22:16.061Z,17.95
2022-10-17T15:24:42.559Z,17.98
2022-10-17T15:27:23.556Z,17.96
2022-10-17T15:29:51.481Z,17.95
2022-10-17T15:32:17.938Z,17.98
2022-10-17T15:34:44.619Z,17.98
2022-10-17T15:37:17.867Z,18.04
2022-10-17T15:39:45.826Z,17.89
2022-10-17T15:42:12.638Z,17.73
2022-10-17T15:44:40.383Z,17.97
2022-10-17T15:47:11.697Z,17.94
2022-10-17T15:49:38.101Z,17.95
2022-10-17T15:52:05.679Z,17.92
2022-10-17T15:54:32.099Z,17.91
2022-10-17T15:56:58.679Z,17.88
2022-10-17T15:59:30.383Z,17.90
2022-10-17T16:01:56.837Z,17.81
2022-10-17T16:04:26.745Z,17.89
2022-10-17T16:06:53.420Z,17.91
2022-10-17T16:09:19.886Z,17.84
2022-10-17T16:11:46.453Z,17.78
2022-10-17T16:14:15.970Z,17.67
2022-10-17T16:16:42.962Z,17.68
2022-10-17T16:19:09.444Z,17.71
2022-10-17T16:21:38.849Z,17.80
2022-10-17T16:24:05.605Z,17.77
2022-10-17T16:26:32.641Z,17.77
2022-10-17T16:29:02.764Z,17.73
2022-10-17T16:31:33.126Z,17.76
2022-10-17T16:34:00.916Z,17.71
2022-10-17T16:36:27.376Z,17.67
2022-10-17T16:38:54.209Z,17.43
2022-10-17T16:41:26.708Z,16.98
2022-10-17T16:43:55.189Z,17.57
2022-10-17T16:46:22.335Z,17.57
2022-10-17T16:48:48.955Z,17.66
2022-10-17T16:51:18.056Z,17.41
2022-10-17T16:53:50.195Z,17.59
2022-10-17T16:56:20.083Z,17.62
2022-10-17T16:58:47.212Z,17.62
2022-10-17T17:01:16.974Z,17.58
2022-10-17T17:03:44.944Z,17.63
2022-10-17T17:06:24.380Z,17.68
2022-10-17T17:08:51.080Z,17.66
2022-10-17T17:11:19.117Z,17.63
2022-10-17T17:13:45.631Z,17.62
2022-10-17T17:16:14.741Z,17.63
2022-10-17T17:18:42.402Z,17.62
2022-10-17T17:21:10.405Z,17.61
2022-10-17T17:23:40.703Z,16.87
2022-10-17T17:34:55.191Z,17.61
2022-10-17T17:37:21.642Z,17.63
2022-10-17T17:39:48.013Z,17.63
2022-10-17T17:42:14.448Z,17.63
2022-10-17T17:44:40.833Z,17.59
2022-10-17T17:47:07.808Z,17.59
2022-10-17T17:49:34.257Z,16.62
2022-10-17T17:52:00.774Z,15.80
2022-10-17T17:54:27.212Z,17.23
2022-10-17T17:56:53.640Z,17.43
2022-10-17T17:59:20.045Z,17.47
2022-10-17T18:01:46.695Z,17.46
2022-10-17T18:04:13.358Z,17.43
2022-10-17T18:06:40.127Z,17.41
2022-10-17T18:09:08.159Z,17.43
2022-10-17T18:11:35.553Z,17.42
2022-10-17T18:14:05.317Z,17.28
2022-10-17T18:16:34.253Z,15.83
2022-10-17T18:19:06.700Z,17.10
2022-10-17T18:21:33.777Z,17.31
2022-10-17T18:24:00.244Z,17.36
2022-10-17T18:26:27.531Z,17.40
2022-10-17T18:28:54.080Z,17.41
2022-10-17T18:31:25.037Z,17.38
2022-10-17T18:33:53.005Z,17.34
2022-10-17T18:36:20.267Z,17.32
2022-10-17T18:38:47.191Z,17.31
2022-10-17T18:41:17.198Z,17.37
2022-10-17T18:43:45.355Z,17.32
2022-10-17T18:46:15.059Z,17.29
2022-10-17T18:48:44.514Z,17.36
2022-10-17T18:51:12.262Z,17.32
2022-10-17T18:53:41.067Z,17.23
2022-10-17T18:56:08.029Z,17.30
2022-10-17T18:58:34.840Z,14.85
2022-10-17T19:01:06.319Z,12.69
2022-10-17T19:03:33.147Z,14.27
2022-10-17T19:06:07.527Z,16.60
2022-10-17T19:08:34.832Z,17.01
2022-10-17T19:11:15.309Z,17.09
2022-10-17T19:16:24.589Z,17.12
2022-10-17T19:18:53.691Z,17.11
2022-10-17T19:21:22.028Z,17.14
2022-10-17T19:23:51.300Z,17.15
2022-10-17T19:26:18.531Z,17.14
2022-10-17T19:28:45.196Z,17.18
2022-10-17T19:31:15.408Z,17.23
2022-10-17T19:33:44.191Z,17.13
2022-10-17T19:36:11.821Z,17.09
2022-10-17T19:38:38.786Z,17.09
2022-10-17T19:41:07.761Z,17.12
2022-10-17T19:43:40.007Z,17.14
2022-10-17T19:46:09.428Z,17.07
2022-10-17T19:48:36.820Z,17.06
2022-10-17T19:51:04.853Z,17.04
2022-10-17T19:53:31.326Z,17.03
2022-10-17T19:55:59.000Z,17.01
2022-10-17T19:58:26.710Z,17.03
2022-10-17T20:00:56.782Z,16.56
2022-10-17T20:03:24.753Z,16.95
2022-10-17T20:05:51.627Z,16.97
2022-10-17T20:08:18.381Z,17.01
2022-10-17T20:10:46.171Z,17.00
2022-10-17T20:13:13.392Z,17.04
2022-10-17T20:15:40.444Z,16.98
2022-10-17T20:18:07.973Z,16.99
2022-10-17T20:20:35.560Z,17.06
2022-10-17T20:23:02.953Z,17.03
2022-10-17T20:25:29.559Z,16.95
2022-10-17T20:27:55.980Z,16.98
2022-10-17T20:30:22.632Z,14.38
2022-10-17T20:32:49.172Z,14.72
2022-10-17T20:35:15.581Z,15.48
2022-10-17T20:37:42.815Z,16.59
2022-10-17T20:40:34.010Z,16.68
2022-10-17T20:42:56.361Z,16.73
2022-10-17T20:45:37.372Z,16.73
2022-10-17T20:48:17.684Z,16.33
2022-10-17T20:50:44.411Z,16.68
2022-10-17T20:53:35.367Z,16.71
2022-10-17T20:56:03.551Z,16.71
2022-10-17T20:58:30.069Z,16.70
2022-10-17T21:00:56.523Z,16.68
2022-10-17T21:03:23.443Z,16.75
2022-10-17T21:05:49.873Z,16.80
2022-10-17T21:08:16.309Z,16.36
2022-10-17T21:10:42.784Z,14.16
2022-10-17T21:13:09.148Z,12.19
2022-10-17T21:15:35.581Z,15.35
2022-10-17T21:18:02.252Z,16.30
2022-10-17T21:20:28.720Z,16.45
2022-10-17T21:22:55.367Z,16.49
2022-10-17T21:25:21.800Z,16.49
2022-10-17T21:27:48.244Z,16.48
2022-10-17T21:30:14.738Z,16.48
2022-10-17T21:32:51.526Z,16.47
2022-10-17T21:35:18.521Z,16.47
2022-10-17T21:37:44.970Z,16.52
2022-10-17T21:40:12.191Z,16.54
2022-10-17T21:42:38.567Z,16.52
2022-10-17T21:45:10.756Z,15.29
2022-10-17T21:47:55.026Z,13.14
2022-10-17T21:50:29.212Z,15.17
2022-10-17T21:52:55.575Z,16.08
2022-10-17T21:55:22.025Z,16.19
2022-10-17T21:57:49.591Z,16.27
2022-10-17T22:00:16.117Z,16.26
2022-10-17T22:02:42.519Z,16.34
2022-10-17T22:05:09.474Z,16.32
2022-10-17T22:07:35.877Z,16.34
2022-10-17T22:10:02.672Z,16.38
2022-10-17T22:12:29.456Z,16.31
2022-10-17T22:14:56.144Z,16.28
2022-10-17T22:17:22.589Z,16.27
2022-10-17T22:19:49.003Z,16.21
2022-10-17T22:22:15.383Z,16.21
2022-10-17T22:24:41.809Z,16.23
2022-10-17T22:27:10.286Z,16.26
2022-10-17T22:29:36.696Z,16.22
2022-10-17T22:32:03.205Z,16.17
2022-10-17T22:34:29.650Z,16.15
2022-10-17T22:36:56.051Z,16.09
2022-10-17T22:39:22.452Z,15.78
2022-10-17T22:41:48.857Z,16.10
2022-10-17T22:44:15.243Z,16.15
2022-10-17T22:46:41.727Z,15.92
2022-10-17T22:49:08.464Z,16.05
2022-10-17T22:51:34.910Z,16.12
2022-10-17T22:54:01.560Z,16.13
2022-10-17T22:56:28.039Z,15.99
2022-10-17T22:58:54.481Z,15.33
2022-10-17T23:01:23.344Z,15.50
2022-10-17T23:03:51.180Z,15.92
2022-10-17T23:06:18.045Z,15.96
2022-10-17T23:08:45.029Z,15.11
2022-10-17T23:11:11.690Z,15.74
2022-10-17T23:13:39.709Z,15.76
2022-10-17T23:16:06.464Z,15.78
2022-10-17T23:18:33.450Z,15.85
2022-10-17T23:20:59.910Z,15.82
2022-10-17T23:23:26.329Z,15.73
2022-10-17T23:25:52.892Z,15.78
2022-10-17T23:28:19.343Z,15.74
2022-10-17T23:30:46.128Z,15.74
2022-10-17T23:33:13.471Z,15.77
2022-10-17T23:35:40.433Z,15.71
2022-10-17T23:38:07.029Z,15.74
2022-10-17T23:40:34.811Z,15.84
2022-10-17T23:43:01.358Z,15.83
2022-10-17T23:45:27.888Z,15.82
2022-10-17T23:47:54.384Z,15.68
2022-10-17T23:50:20.765Z,15.60
2022-10-17T23:52:47.263Z,15.42
2022-10-17T23:55:13.696Z,15.64
2022-10-17T23:57:40.140Z,15.55
